sensor_id;sensor_type;location;lat;lon;timestamp;temperature;humidity
23520;DHT22;11936;50.820;4.336;2023-04-28T00:01:14;13.50;99.90
23520;DHT22;11936;50.820;4.336;2023-04-28T00:03:41;13.40;99.90
23520;DHT22;11936;50.820;4.336;2023-04-28T00:06:06;13.30;99.90
23520;DHT22;11936;50.820;4.336;2023-04-28T00:08:32;13.40;99.90
23520;DHT22;11936;50.820;4.336;2023-04-28T00:10:58;13.40;99.90
23520;DHT22;11936;50.820;4.336;2023-04-28T00:13:24;13.40;99.90
23520;DHT22;11936;50.820;4.336;2023-04-28T00:15:50;13.40;99.90
23520;DHT22;11936;50.820;4.336;2023-04-28T00:18:19;13.30;99.90
23520;DHT22;11936;50.820;4.336;2023-04-28T00:20:45;13.40;99.90
23520;DHT22;11936;50.820;4.336;2023-04-28T00:23:11;13.30;99.90
23520;DHT22;11936;50.820;4.336;2023-04-28T00:25:37;13.30;99.90
23520;DHT22;11936;50.820;4.336;2023-04-28T00:28:03;13.30;99.90
23520;DHT22;11936;50.820;4.336;2023-04-28T00:30:29;13.30;99.90
23520;DHT22;11936;50.820;4.336;2023-04-28T00:32:55;13.20;99.90
23520;DHT22;11936;50.820;4.336;2023-04-28T00:35:20;13.10;99.90
23520;DHT22;11936;50.820;4.336;2023-04-28T00:37:46;13.20;99.90
23520;DHT22;11936;50.820;4.336;2023-04-28T00:40:12;13.20;99.90
23520;DHT22;11936;50.820;4.336;2023-04-28T00:42:38;13.10;99.90
23520;DHT22;11936;50.820;4.336;2023-04-28T00:45:04;13.10;99.90
23520;DHT22;11936;50.820;4.336;2023-04-28T00:47:36;13.20;99.90
23520;DHT22;11936;50.820;4.336;2023-04-28T00:50:02;13.30;99.90
23520;DHT22;11936;50.820;4.336;2023-04-28T00:52:30;13.30;99.90
23520;DHT22;11936;50.820;4.336;2023-04-28T00:54:56;13.40;99.90
23520;DHT22;11936;50.820;4.336;2023-04-28T00:57:22;13.40;99.90
23520;DHT22;11936;50.820;4.336;2023-04-28T00:59:48;13.40;99.90
23520;DHT22;11936;50.820;4.336;2023-04-28T01:02:14;13.30;99.90
23520;DHT22;11936;50.820;4.336;2023-04-28T01:04:44;13.30;99.90
23520;DHT22;11936;50.820;4.336;2023-04-28T01:07:10;13.30;99.90
23520;DHT22;11936;50.820;4.336;2023-04-28T01:09:36;13.30;99.90
23520;DHT22;11936;50.820;4.336;2023-04-28T01:12:02;13.20;99.90
23520;DHT22;11936;50.820;4.336;2023-04-28T01:14:28;13.20;99.90
23520;DHT22;11936;50.820;4.336;2023-04-28T01:16:53;13.20;99.90
23520;DHT22;11936;50.820;4.336;2023-04-28T01:19:20;13.30;99.90
23520;DHT22;11936;50.820;4.336;2023-04-28T01:21:47;13.20;99.90
23520;DHT22;11936;50.820;4.336;2023-04-28T01:24:12;13.30;99.90
23520;DHT22;11936;50.820;4.336;2023-04-28T01:26:38;13.20;99.90
23520;DHT22;11936;50.820;4.336;2023-04-28T01:29:04;13.10;99.90
23520;DHT22;11936;50.820;4.336;2023-04-28T01:31:30;13.20;99.90
23520;DHT22;11936;50.820;4.336;2023-04-28T01:33:56;13.20;99.90
23520;DHT22;11936;50.820;4.336;2023-04-28T01:36:21;13.10;99.90
23520;DHT22;11936;50.820;4.336;2023-04-28T01:38:48;13.20;99.90
23520;DHT22;11936;50.820;4.336;2023-04-28T01:41:14;13.20;99.90
23520;DHT22;11936;50.820;4.336;2023-04-28T01:43:40;13.20;99.90
23520;DHT22;11936;50.820;4.336;2023-04-28T01:46:08;13.20;99.90
23520;DHT22;11936;50.820;4.336;2023-04-28T01:48:34;13.30;99.90
23520;DHT22;11936;50.820;4.336;2023-04-28T01:50:59;13.40;99.90
23520;DHT22;11936;50.820;4.336;2023-04-28T01:53:25;13.30;99.90
23520;DHT22;11936;50.820;4.336;2023-04-28T01:55:52;13.30;99.90
23520;DHT22;11936;50.820;4.336;2023-04-28T01:58:18;13.30;99.90
23520;DHT22;11936;50.820;4.336;2023-04-28T02:00:43;13.30;99.90
23520;DHT22;11936;50.820;4.336;2023-04-28T02:03:09;13.30;99.90
23520;DHT22;11936;50.820;4.336;2023-04-28T02:05:35;13.30;99.90
23520;DHT22;11936;50.820;4.336;2023-04-28T02:08:01;13.20;99.90
23520;DHT22;11936;50.820;4.336;2023-04-28T02:10:27;13.30;99.90
23520;DHT22;11936;50.820;4.336;2023-04-28T02:12:53;13.20;99.90
23520;DHT22;11936;50.820;4.336;2023-04-28T02:15:19;13.20;99.90
23520;DHT22;11936;50.820;4.336;2023-04-28T02:17:45;13.20;99.90
23520;DHT22;11936;50.820;4.336;2023-04-28T02:20:10;13.10;99.90
23520;DHT22;11936;50.820;4.336;2023-04-28T02:22:39;13.20;99.90
23520;DHT22;11936;50.820;4.336;2023-04-28T02:25:06;13.20;99.90
23520;DHT22;11936;50.820;4.336;2023-04-28T02:27:33;13.30;99.90
23520;DHT22;11936;50.820;4.336;2023-04-28T02:29:59;13.30;99.90
23520;DHT22;11936;50.820;4.336;2023-04-28T02:32:25;13.30;99.90
23520;DHT22;11936;50.820;4.336;2023-04-28T02:34:54;13.20;99.90
23520;DHT22;11936;50.820;4.336;2023-04-28T02:37:20;13.20;99.90
23520;DHT22;11936;50.820;4.336;2023-04-28T02:39:46;13.10;99.90
23520;DHT22;11936;50.820;4.336;2023-04-28T02:42:12;13.10;99.90
23520;DHT22;11936;50.820;4.336;2023-04-28T02:44:38;13.10;99.90
23520;DHT22;11936;50.820;4.336;2023-04-28T02:47:03;13.00;99.90
23520;DHT22;11936;50.820;4.336;2023-04-28T02:49:29;13.00;99.90
23520;DHT22;11936;50.820;4.336;2023-04-28T02:51:55;13.10;99.90
23520;DHT22;11936;50.820;4.336;2023-04-28T02:54:20;13.00;99.90
23520;DHT22;11936;50.820;4.336;2023-04-28T02:56:53;13.10;99.90
23520;DHT22;11936;50.820;4.336;2023-04-28T02:59:19;13.20;99.90
23520;DHT22;11936;50.820;4.336;2023-04-28T03:01:45;13.20;99.90
23520;DHT22;11936;50.820;4.336;2023-04-28T03:04:11;13.30;99.90
23520;DHT22;11936;50.820;4.336;2023-04-28T03:06:36;13.30;99.90
23520;DHT22;11936;50.820;4.336;2023-04-28T03:09:02;13.20;99.90
23520;DHT22;11936;50.820;4.336;2023-04-28T03:11:28;13.20;99.90
23520;DHT22;11936;50.820;4.336;2023-04-28T03:13:54;13.30;99.90
23520;DHT22;11936;50.820;4.336;2023-04-28T03:16:19;13.40;99.90
23520;DHT22;11936;50.820;4.336;2023-04-28T03:18:45;13.40;99.90
23520;DHT22;11936;50.820;4.336;2023-04-28T03:21:11;13.30;99.90
23520;DHT22;11936;50.820;4.336;2023-04-28T03:23:36;13.30;99.90
23520;DHT22;11936;50.820;4.336;2023-04-28T03:26:02;13.40;99.90
23520;DHT22;11936;50.820;4.336;2023-04-28T03:28:27;13.40;99.90
23520;DHT22;11936;50.820;4.336;2023-04-28T03:30:53;13.40;99.90
23520;DHT22;11936;50.820;4.336;2023-04-28T03:33:19;13.40;99.90
23520;DHT22;11936;50.820;4.336;2023-04-28T03:35:45;13.50;99.90
23520;DHT22;11936;50.820;4.336;2023-04-28T03:38:10;13.60;99.90
23520;DHT22;11936;50.820;4.336;2023-04-28T03:40:36;13.60;99.90
23520;DHT22;11936;50.820;4.336;2023-04-28T03:43:02;13.70;99.90
23520;DHT22;11936;50.820;4.336;2023-04-28T03:45:28;13.70;99.90
23520;DHT22;11936;50.820;4.336;2023-04-28T03:47:53;13.60;99.90
23520;DHT22;11936;50.820;4.336;2023-04-28T03:50:19;13.60;99.90
23520;DHT22;11936;50.820;4.336;2023-04-28T03:52:45;13.60;99.90
23520;DHT22;11936;50.820;4.336;2023-04-28T03:55:13;13.70;99.90
23520;DHT22;11936;50.820;4.336;2023-04-28T03:57:38;13.70;99.90
23520;DHT22;11936;50.820;4.336;2023-04-28T04:00:04;13.70;99.90
23520;DHT22;11936;50.820;4.336;2023-04-28T04:02:30;13.60;99.90
23520;DHT22;11936;50.820;4.336;2023-04-28T04:04:56;13.70;99.90
23520;DHT22;11936;50.820;4.336;2023-04-28T04:07:22;13.70;99.90
23520;DHT22;11936;50.820;4.336;2023-04-28T04:09:47;13.70;99.90
23520;DHT22;11936;50.820;4.336;2023-04-28T04:12:13;13.60;99.90
23520;DHT22;11936;50.820;4.336;2023-04-28T04:14:39;13.70;99.90
23520;DHT22;11936;50.820;4.336;2023-04-28T04:17:05;13.70;99.90
23520;DHT22;11936;50.820;4.336;2023-04-28T04:19:30;13.70;99.90
23520;DHT22;11936;50.820;4.336;2023-04-28T04:21:56;13.80;99.90
23520;DHT22;11936;50.820;4.336;2023-04-28T04:24:22;13.80;99.90
23520;DHT22;11936;50.820;4.336;2023-04-28T04:26:47;13.80;99.90
23520;DHT22;11936;50.820;4.336;2023-04-28T04:29:13;13.70;99.90
23520;DHT22;11936;50.820;4.336;2023-04-28T04:31:38;13.60;99.90
23520;DHT22;11936;50.820;4.336;2023-04-28T04:34:04;13.70;99.90
23520;DHT22;11936;50.820;4.336;2023-04-28T04:36:30;13.80;99.90
23520;DHT22;11936;50.820;4.336;2023-04-28T04:38:57;13.90;99.90
23520;DHT22;11936;50.820;4.336;2023-04-28T04:41:24;13.90;99.90
23520;DHT22;11936;50.820;4.336;2023-04-28T04:43:50;13.90;99.90
23520;DHT22;11936;50.820;4.336;2023-04-28T04:46:15;13.90;99.90
23520;DHT22;11936;50.820;4.336;2023-04-28T04:48:41;14.00;99.90
23520;DHT22;11936;50.820;4.336;2023-04-28T04:51:07;14.00;99.90
23520;DHT22;11936;50.820;4.336;2023-04-28T04:53:33;14.00;99.90
23520;DHT22;11936;50.820;4.336;2023-04-28T04:55:59;14.00;99.90
23520;DHT22;11936;50.820;4.336;2023-04-28T04:58:24;14.00;99.90
23520;DHT22;11936;50.820;4.336;2023-04-28T05:00:50;14.10;99.90
23520;DHT22;11936;50.820;4.336;2023-04-28T05:03:16;14.00;99.90
23520;DHT22;11936;50.820;4.336;2023-04-28T05:05:42;14.00;99.90
23520;DHT22;11936;50.820;4.336;2023-04-28T05:08:10;14.00;99.90
23520;DHT22;11936;50.820;4.336;2023-04-28T05:10:35;14.10;99.90
23520;DHT22;11936;50.820;4.336;2023-04-28T05:13:01;14.20;99.90
23520;DHT22;11936;50.820;4.336;2023-04-28T05:15:27;14.10;99.90
23520;DHT22;11936;50.820;4.336;2023-04-28T05:17:53;14.10;99.90
23520;DHT22;11936;50.820;4.336;2023-04-28T05:20:18;14.10;99.90
23520;DHT22;11936;50.820;4.336;2023-04-28T05:22:44;14.10;99.90
23520;DHT22;11936;50.820;4.336;2023-04-28T05:25:10;14.10;99.90
23520;DHT22;11936;50.820;4.336;2023-04-28T05:27:36;14.10;99.90
23520;DHT22;11936;50.820;4.336;2023-04-28T05:30:05;14.10;99.90
23520;DHT22;11936;50.820;4.336;2023-04-28T05:32:30;14.20;99.90
23520;DHT22;11936;50.820;4.336;2023-04-28T05:34:56;14.10;99.90
23520;DHT22;11936;50.820;4.336;2023-04-28T05:37:22;14.20;99.90
23520;DHT22;11936;50.820;4.336;2023-04-28T05:39:47;14.30;99.90
23520;DHT22;11936;50.820;4.336;2023-04-28T05:42:13;14.30;99.90
23520;DHT22;11936;50.820;4.336;2023-04-28T05:44:38;14.30;99.90
23520;DHT22;11936;50.820;4.336;2023-04-28T05:47:04;14.40;99.90
23520;DHT22;11936;50.820;4.336;2023-04-28T05:49:30;14.40;99.90
23520;DHT22;11936;50.820;4.336;2023-04-28T05:51:55;14.30;99.90
23520;DHT22;11936;50.820;4.336;2023-04-28T05:54:21;14.20;99.90
23520;DHT22;11936;50.820;4.336;2023-04-28T05:56:47;14.30;99.90
23520;DHT22;11936;50.820;4.336;2023-04-28T05:59:12;14.40;99.90
23520;DHT22;11936;50.820;4.336;2023-04-28T06:01:38;14.40;99.90
23520;DHT22;11936;50.820;4.336;2023-04-28T06:04:03;14.50;99.90
23520;DHT22;11936;50.820;4.336;2023-04-28T06:06:29;14.40;99.90
23520;DHT22;11936;50.820;4.336;2023-04-28T06:08:56;14.40;99.90
23520;DHT22;11936;50.820;4.336;2023-04-28T06:11:21;14.30;99.90
23520;DHT22;11936;50.820;4.336;2023-04-28T06:13:50;14.40;99.90
23520;DHT22;11936;50.820;4.336;2023-04-28T06:16:16;14.40;99.90
23520;DHT22;11936;50.820;4.336;2023-04-28T06:18:42;14.50;99.90
23520;DHT22;11936;50.820;4.336;2023-04-28T06:21:08;14.70;99.90
23520;DHT22;11936;50.820;4.336;2023-04-28T06:23:33;14.60;99.90
23520;DHT22;11936;50.820;4.336;2023-04-28T06:26:00;14.60;99.90
23520;DHT22;11936;50.820;4.336;2023-04-28T06:28:25;14.70;99.90
23520;DHT22;11936;50.820;4.336;2023-04-28T06:30:51;14.70;99.90
23520;DHT22;11936;50.820;4.336;2023-04-28T06:33:17;14.80;99.90
23520;DHT22;11936;50.820;4.336;2023-04-28T06:35:43;14.80;99.90
23520;DHT22;11936;50.820;4.336;2023-04-28T06:38:08;14.80;99.90
23520;DHT22;11936;50.820;4.336;2023-04-28T06:40:34;14.80;99.90
23520;DHT22;11936;50.820;4.336;2023-04-28T06:43:00;14.80;99.90
23520;DHT22;11936;50.820;4.336;2023-04-28T06:45:25;14.70;99.90
23520;DHT22;11936;50.820;4.336;2023-04-28T06:47:53;14.70;99.90
23520;DHT22;11936;50.820;4.336;2023-04-28T06:50:22;14.70;99.90
23520;DHT22;11936;50.820;4.336;2023-04-28T06:52:48;14.70;99.90
23520;DHT22;11936;50.820;4.336;2023-04-28T06:55:15;14.80;99.90
23520;DHT22;11936;50.820;4.336;2023-04-28T06:57:43;14.90;99.90
23520;DHT22;11936;50.820;4.336;2023-04-28T07:00:09;14.90;99.90
23520;DHT22;11936;50.820;4.336;2023-04-28T07:02:35;14.90;99.90
23520;DHT22;11936;50.820;4.336;2023-04-28T07:05:01;14.90;99.90
23520;DHT22;11936;50.820;4.336;2023-04-28T07:07:28;14.80;99.90
23520;DHT22;11936;50.820;4.336;2023-04-28T07:09:54;14.80;99.90
23520;DHT22;11936;50.820;4.336;2023-04-28T07:12:20;14.90;99.90
23520;DHT22;11936;50.820;4.336;2023-04-28T07:14:46;15.00;99.90
23520;DHT22;11936;50.820;4.336;2023-04-28T07:17:12;15.10;99.90
23520;DHT22;11936;50.820;4.336;2023-04-28T07:19:38;15.00;99.90
23520;DHT22;11936;50.820;4.336;2023-04-28T07:22:03;15.00;99.90
23520;DHT22;11936;50.820;4.336;2023-04-28T07:24:29;14.90;99.90
23520;DHT22;11936;50.820;4.336;2023-04-28T07:26:55;15.00;99.90
23520;DHT22;11936;50.820;4.336;2023-04-28T07:29:22;15.00;99.90
23520;DHT22;11936;50.820;4.336;2023-04-28T07:31:47;15.10;99.90
23520;DHT22;11936;50.820;4.336;2023-04-28T07:34:13;15.20;99.90
23520;DHT22;11936;50.820;4.336;2023-04-28T07:36:39;15.30;99.90
23520;DHT22;11936;50.820;4.336;2023-04-28T07:39:05;15.40;99.90
23520;DHT22;11936;50.820;4.336;2023-04-28T07:41:38;15.40;99.90
23520;DHT22;11936;50.820;4.336;2023-04-28T07:44:05;15.50;99.90
23520;DHT22;11936;50.820;4.336;2023-04-28T07:46:31;15.50;99.90
23520;DHT22;11936;50.820;4.336;2023-04-28T07:48:58;15.70;99.90
23520;DHT22;11936;50.820;4.336;2023-04-28T07:51:23;15.70;99.90
23520;DHT22;11936;50.820;4.336;2023-04-28T07:53:49;15.60;99.90
23520;DHT22;11936;50.820;4.336;2023-04-28T07:56:15;15.70;99.90
23520;DHT22;11936;50.820;4.336;2023-04-28T07:58:41;15.80;99.90
23520;DHT22;11936;50.820;4.336;2023-04-28T08:01:06;15.90;99.90
23520;DHT22;11936;50.820;4.336;2023-04-28T08:03:32;15.90;99.90
23520;DHT22;11936;50.820;4.336;2023-04-28T08:05:58;16.00;99.90
23520;DHT22;11936;50.820;4.336;2023-04-28T08:08:24;15.90;99.90
23520;DHT22;11936;50.820;4.336;2023-04-28T08:10:49;15.90;99.90
23520;DHT22;11936;50.820;4.336;2023-04-28T08:13:16;16.00;99.90
23520;DHT22;11936;50.820;4.336;2023-04-28T08:15:42;15.90;99.90
23520;DHT22;11936;50.820;4.336;2023-04-28T08:18:07;15.90;99.90
23520;DHT22;11936;50.820;4.336;2023-04-28T08:20:33;15.80;99.90
23520;DHT22;11936;50.820;4.336;2023-04-28T08:22:59;15.70;99.90
23520;DHT22;11936;50.820;4.336;2023-04-28T08:25:25;15.70;99.90
23520;DHT22;11936;50.820;4.336;2023-04-28T08:27:50;15.70;99.90
23520;DHT22;11936;50.820;4.336;2023-04-28T08:30:16;15.80;99.90
23520;DHT22;11936;50.820;4.336;2023-04-28T08:32:42;15.80;99.90
23520;DHT22;11936;50.820;4.336;2023-04-28T08:35:08;15.90;99.90
23520;DHT22;11936;50.820;4.336;2023-04-28T08:37:34;15.90;99.90
23520;DHT22;11936;50.820;4.336;2023-04-28T08:40:00;16.00;99.90
23520;DHT22;11936;50.820;4.336;2023-04-28T08:42:36;16.10;99.90
23520;DHT22;11936;50.820;4.336;2023-04-28T08:45:03;16.30;99.90
23520;DHT22;11936;50.820;4.336;2023-04-28T08:47:38;16.20;99.90
23520;DHT22;11936;50.820;4.336;2023-04-28T08:50:11;16.00;99.90
23520;DHT22;11936;50.820;4.336;2023-04-28T08:52:38;16.00;99.90
23520;DHT22;11936;50.820;4.336;2023-04-28T08:55:08;16.00;99.90
23520;DHT22;11936;50.820;4.336;2023-04-28T08:57:44;16.10;99.90
23520;DHT22;11936;50.820;4.336;2023-04-28T09:00:10;16.00;99.90
23520;DHT22;11936;50.820;4.336;2023-04-28T09:02:37;16.20;99.90
23520;DHT22;11936;50.820;4.336;2023-04-28T09:05:10;16.00;99.90
23520;DHT22;11936;50.820;4.336;2023-04-28T09:07:36;16.00;99.90
23520;DHT22;11936;50.820;4.336;2023-04-28T09:12:47;16.00;99.90
23520;DHT22;11936;50.820;4.336;2023-04-28T09:15:33;16.20;99.90
23520;DHT22;11936;50.820;4.336;2023-04-28T09:18:04;16.40;99.90
23520;DHT22;11936;50.820;4.336;2023-04-28T09:20:32;16.50;99.90
23520;DHT22;11936;50.820;4.336;2023-04-28T09:23:21;16.60;99.90
23520;DHT22;11936;50.820;4.336;2023-04-28T09:28:34;16.70;99.90
23520;DHT22;11936;50.820;4.336;2023-04-28T09:31:00;16.70;99.90
23520;DHT22;11936;50.820;4.336;2023-04-28T09:33:26;16.70;99.90
23520;DHT22;11936;50.820;4.336;2023-04-28T09:35:52;16.60;99.90
23520;DHT22;11936;50.820;4.336;2023-04-28T09:38:19;16.70;99.90
23520;DHT22;11936;50.820;4.336;2023-04-28T09:43:33;16.70;99.90
23520;DHT22;11936;50.820;4.336;2023-04-28T09:46:01;16.70;99.90
23520;DHT22;11936;50.820;4.336;2023-04-28T09:48:37;16.80;99.90
23520;DHT22;11936;50.820;4.336;2023-04-28T09:51:04;16.90;99.90
23520;DHT22;11936;50.820;4.336;2023-04-28T09:53:31;17.00;99.90
23520;DHT22;11936;50.820;4.336;2023-04-28T09:55:58;17.10;99.90
23520;DHT22;11936;50.820;4.336;2023-04-28T09:58:25;17.10;99.90
23520;DHT22;11936;50.820;4.336;2023-04-28T10:00:58;17.00;99.90
23520;DHT22;11936;50.820;4.336;2023-04-28T10:03:28;17.10;99.90
23520;DHT22;11936;50.820;4.336;2023-04-28T10:05:55;17.10;99.90
23520;DHT22;11936;50.820;4.336;2023-04-28T10:08:23;17.20;99.90
23520;DHT22;11936;50.820;4.336;2023-04-28T10:10:50;17.20;99.90
23520;DHT22;11936;50.820;4.336;2023-04-28T10:13:20;17.20;99.90
23520;DHT22;11936;50.820;4.336;2023-04-28T10:15:46;17.20;99.90
23520;DHT22;11936;50.820;4.336;2023-04-28T10:18:13;17.30;99.90
23520;DHT22;11936;50.820;4.336;2023-04-28T10:20:41;17.20;99.90
23520;DHT22;11936;50.820;4.336;2023-04-28T10:25:36;17.20;99.90
23520;DHT22;11936;50.820;4.336;2023-04-28T10:28:07;17.20;99.90
23520;DHT22;11936;50.820;4.336;2023-04-28T10:30:33;17.30;99.90
23520;DHT22;11936;50.820;4.336;2023-04-28T10:38:06;17.50;99.90
23520;DHT22;11936;50.820;4.336;2023-04-28T10:40:44;17.50;99.90
23520;DHT22;11936;50.820;4.336;2023-04-28T10:43:12;17.50;99.90
23520;DHT22;11936;50.820;4.336;2023-04-28T10:48:16;17.40;99.90
23520;DHT22;11936;50.820;4.336;2023-04-28T10:58:41;17.00;99.90
23520;DHT22;11936;50.820;4.336;2023-04-28T11:06:33;17.20;99.90
23520;DHT22;11936;50.820;4.336;2023-04-28T11:14:33;16.90;99.90
23520;DHT22;11936;50.820;4.336;2023-04-28T11:17:03;16.90;99.90
23520;DHT22;11936;50.820;4.336;2023-04-28T11:19:33;16.90;99.90
23520;DHT22;11936;50.820;4.336;2023-04-28T11:22:20;16.90;99.90
23520;DHT22;11936;50.820;4.336;2023-04-28T11:24:58;16.70;99.90
23520;DHT22;11936;50.820;4.336;2023-04-28T11:27:28;16.70;99.90
23520;DHT22;11936;50.820;4.336;2023-04-28T11:29:54;16.50;99.90
23520;DHT22;11936;50.820;4.336;2023-04-28T11:32:31;16.50;99.90
23520;DHT22;11936;50.820;4.336;2023-04-28T11:34:57;16.50;99.90
23520;DHT22;11936;50.820;4.336;2023-04-28T11:37:23;16.50;99.90
23520;DHT22;11936;50.820;4.336;2023-04-28T11:39:49;16.40;99.90
23520;DHT22;11936;50.820;4.336;2023-04-28T11:42:15;16.40;99.90
23520;DHT22;11936;50.820;4.336;2023-04-28T11:44:51;16.50;99.90
23520;DHT22;11936;50.820;4.336;2023-04-28T11:47:28;16.40;99.90
23520;DHT22;11936;50.820;4.336;2023-04-28T11:49:54;16.30;99.90
23520;DHT22;11936;50.820;4.336;2023-04-28T11:52:20;16.40;99.90
23520;DHT22;11936;50.820;4.336;2023-04-28T11:54:55;16.30;99.90
23520;DHT22;11936;50.820;4.336;2023-04-28T11:57:22;16.30;99.90
23520;DHT22;11936;50.820;4.336;2023-04-28T11:59:48;16.30;99.90
23520;DHT22;11936;50.820;4.336;2023-04-28T12:02:14;16.40;99.90
23520;DHT22;11936;50.820;4.336;2023-04-28T12:04:42;16.30;99.90
23520;DHT22;11936;50.820;4.336;2023-04-28T12:07:13;16.30;99.90
23520;DHT22;11936;50.820;4.336;2023-04-28T12:09:41;16.40;99.90
23520;DHT22;11936;50.820;4.336;2023-04-28T12:12:11;16.20;99.90
23520;DHT22;11936;50.820;4.336;2023-04-28T12:17:32;16.40;99.90
23520;DHT22;11936;50.820;4.336;2023-04-28T12:20:01;16.30;99.90
23520;DHT22;11936;50.820;4.336;2023-04-28T12:22:27;16.40;99.90
23520;DHT22;11936;50.820;4.336;2023-04-28T12:25:08;16.30;99.90
23520;DHT22;11936;50.820;4.336;2023-04-28T12:27:35;16.30;99.90
23520;DHT22;11936;50.820;4.336;2023-04-28T12:30:27;16.40;99.90
23520;DHT22;11936;50.820;4.336;2023-04-28T12:32:53;16.30;99.90
23520;DHT22;11936;50.820;4.336;2023-04-28T12:35:27;16.40;99.90
23520;DHT22;11936;50.820;4.336;2023-04-28T12:37:54;16.40;99.90
23520;DHT22;11936;50.820;4.336;2023-04-28T12:40:20;16.40;99.90
23520;DHT22;11936;50.820;4.336;2023-04-28T12:42:46;16.40;99.90
23520;DHT22;11936;50.820;4.336;2023-04-28T12:45:12;16.40;99.90
23520;DHT22;11936;50.820;4.336;2023-04-28T12:47:37;16.30;99.90
23520;DHT22;11936;50.820;4.336;2023-04-28T12:50:05;16.30;99.90
23520;DHT22;11936;50.820;4.336;2023-04-28T12:52:31;16.40;99.90
23520;DHT22;11936;50.820;4.336;2023-04-28T12:55:02;16.50;99.90
23520;DHT22;11936;50.820;4.336;2023-04-28T12:57:28;16.40;99.90
23520;DHT22;11936;50.820;4.336;2023-04-28T12:59:54;16.40;99.90
23520;DHT22;11936;50.820;4.336;2023-04-28T13:02:21;16.40;99.90
23520;DHT22;11936;50.820;4.336;2023-04-28T13:04:47;16.40;99.90
23520;DHT22;11936;50.820;4.336;2023-04-28T13:07:13;16.50;99.90
23520;DHT22;11936;50.820;4.336;2023-04-28T13:09:40;16.40;99.90
23520;DHT22;11936;50.820;4.336;2023-04-28T13:12:07;16.40;99.90
23520;DHT22;11936;50.820;4.336;2023-04-28T13:14:33;16.50;99.90
23520;DHT22;11936;50.820;4.336;2023-04-28T13:16:59;16.50;99.90
23520;DHT22;11936;50.820;4.336;2023-04-28T13:19:24;16.70;99.90
23520;DHT22;11936;50.820;4.336;2023-04-28T13:21:51;16.80;99.90
23520;DHT22;11936;50.820;4.336;2023-04-28T13:24:17;16.80;99.90
23520;DHT22;11936;50.820;4.336;2023-04-28T13:26:43;16.60;99.90
23520;DHT22;11936;50.820;4.336;2023-04-28T13:29:09;16.30;99.90
23520;DHT22;11936;50.820;4.336;2023-04-28T13:31:35;16.30;99.90
23520;DHT22;11936;50.820;4.336;2023-04-28T13:34:01;16.30;99.90
23520;DHT22;11936;50.820;4.336;2023-04-28T13:36:28;16.30;99.90
23520;DHT22;11936;50.820;4.336;2023-04-28T13:38:54;16.20;99.90
23520;DHT22;11936;50.820;4.336;2023-04-28T13:41:20;16.20;99.90
23520;DHT22;11936;50.820;4.336;2023-04-28T13:43:46;16.30;99.90
23520;DHT22;11936;50.820;4.336;2023-04-28T13:46:11;16.40;99.90
23520;DHT22;11936;50.820;4.336;2023-04-28T13:48:37;16.30;99.90
23520;DHT22;11936;50.820;4.336;2023-04-28T13:51:04;16.30;99.90
23520;DHT22;11936;50.820;4.336;2023-04-28T13:53:31;16.10;99.90
23520;DHT22;11936;50.820;4.336;2023-04-28T13:55:57;15.90;99.90
23520;DHT22;11936;50.820;4.336;2023-04-28T13:58:26;16.00;99.90
23520;DHT22;11936;50.820;4.336;2023-04-28T14:00:53;16.20;99.90
23520;DHT22;11936;50.820;4.336;2023-04-28T14:03:20;16.10;99.90
23520;DHT22;11936;50.820;4.336;2023-04-28T14:05:47;16.20;99.90
23520;DHT22;11936;50.820;4.336;2023-04-28T14:08:14;16.30;99.90
23520;DHT22;11936;50.820;4.336;2023-04-28T14:10:40;16.50;99.90
23520;DHT22;11936;50.820;4.336;2023-04-28T14:13:05;16.60;99.90
23520;DHT22;11936;50.820;4.336;2023-04-28T14:15:32;16.60;99.90
23520;DHT22;11936;50.820;4.336;2023-04-28T14:17:58;16.70;99.90
23520;DHT22;11936;50.820;4.336;2023-04-28T14:20:23;16.50;99.90
23520;DHT22;11936;50.820;4.336;2023-04-28T14:22:49;16.60;99.90
23520;DHT22;11936;50.820;4.336;2023-04-28T14:25:16;16.60;99.90
23520;DHT22;11936;50.820;4.336;2023-04-28T14:27:43;16.80;99.90
23520;DHT22;11936;50.820;4.336;2023-04-28T14:30:09;17.00;99.90
23520;DHT22;11936;50.820;4.336;2023-04-28T14:32:35;17.00;99.90
23520;DHT22;11936;50.820;4.336;2023-04-28T14:35:03;17.00;99.90
23520;DHT22;11936;50.820;4.336;2023-04-28T14:37:31;17.00;99.90
23520;DHT22;11936;50.820;4.336;2023-04-28T14:39:57;17.00;99.90
23520;DHT22;11936;50.820;4.336;2023-04-28T14:42:31;16.90;99.90
23520;DHT22;11936;50.820;4.336;2023-04-28T14:44:57;17.10;99.90
23520;DHT22;11936;50.820;4.336;2023-04-28T14:47:24;17.00;99.90
23520;DHT22;11936;50.820;4.336;2023-04-28T14:49:51;17.10;99.90
23520;DHT22;11936;50.820;4.336;2023-04-28T14:52:19;17.10;99.90
23520;DHT22;11936;50.820;4.336;2023-04-28T14:54:47;17.30;99.90
23520;DHT22;11936;50.820;4.336;2023-04-28T14:57:17;17.30;99.90
23520;DHT22;11936;50.820;4.336;2023-04-28T14:59:43;17.40;99.90
23520;DHT22;11936;50.820;4.336;2023-04-28T15:02:09;17.30;99.90
23520;DHT22;11936;50.820;4.336;2023-04-28T15:04:34;17.50;99.90
23520;DHT22;11936;50.820;4.336;2023-04-28T15:07:00;17.30;99.90
23520;DHT22;11936;50.820;4.336;2023-04-28T15:09:26;17.40;99.90
23520;DHT22;11936;50.820;4.336;2023-04-28T15:11:52;17.30;99.90
23520;DHT22;11936;50.820;4.336;2023-04-28T15:14:18;17.30;99.90
23520;DHT22;11936;50.820;4.336;2023-04-28T15:16:44;17.50;99.90
23520;DHT22;11936;50.820;4.336;2023-04-28T15:19:11;17.70;99.90
23520;DHT22;11936;50.820;4.336;2023-04-28T15:21:37;17.80;99.90
23520;DHT22;11936;50.820;4.336;2023-04-28T15:24:03;17.90;99.90
23520;DHT22;11936;50.820;4.336;2023-04-28T15:26:29;17.80;99.90
23520;DHT22;11936;50.820;4.336;2023-04-28T15:28:55;17.70;99.90
23520;DHT22;11936;50.820;4.336;2023-04-28T15:31:20;17.70;99.90
23520;DHT22;11936;50.820;4.336;2023-04-28T15:33:50;17.60;99.90
23520;DHT22;11936;50.820;4.336;2023-04-28T15:36:16;17.50;99.90
23520;DHT22;11936;50.820;4.336;2023-04-28T15:38:43;17.30;99.90
23520;DHT22;11936;50.820;4.336;2023-04-28T15:41:10;17.30;99.90
23520;DHT22;11936;50.820;4.336;2023-04-28T15:43:36;17.20;99.90
23520;DHT22;11936;50.820;4.336;2023-04-28T15:46:04;17.00;99.90
23520;DHT22;11936;50.820;4.336;2023-04-28T15:48:33;17.10;99.90
23520;DHT22;11936;50.820;4.336;2023-04-28T15:50:58;16.80;99.90
23520;DHT22;11936;50.820;4.336;2023-04-28T15:53:24;16.70;99.90
23520;DHT22;11936;50.820;4.336;2023-04-28T15:55:50;16.70;99.90
23520;DHT22;11936;50.820;4.336;2023-04-28T15:58:16;16.60;99.90
23520;DHT22;11936;50.820;4.336;2023-04-28T16:00:41;16.50;99.90
23520;DHT22;11936;50.820;4.336;2023-04-28T16:03:09;16.60;99.90
23520;DHT22;11936;50.820;4.336;2023-04-28T16:05:37;16.50;99.90
23520;DHT22;11936;50.820;4.336;2023-04-28T16:08:03;16.40;99.90